Time;durP1;ratioP1;P1;durP2;ratioP2;P2;SDS_P1;SDS_P2;PMS_P1;PMS_P2;Temp;Humidity;BMP_temperature;BMP_pressure;BME280_temperature;BME280_humidity;BME280_pressure;Samples;Min_cycle;Max_cycle;Signal;HPM_P1;HPM_P2
2023/01/02 00:01:55;;;;;;;10.00;3.90;;;13.50;99.90;;;;;;4995375;28;20217;-95
2023/01/02 00:04:22;;;;;;;8.20;3.50;;;13.40;99.90;;;;;;4996493;28;20210;-92
2023/01/02 00:06:51;;;;;;;10.30;4.50;;;13.40;99.90;;;;;;4995155;28;20526;-96
2023/01/02 00:09:18;;;;;;;9.90;3.50;;;13.40;99.90;;;;;;4995922;28;20356;-93
2023/01/02 00:11:45;;;;;;;8.40;3.50;;;13.40;99.90;;;;;;4995935;28;20327;-94
2023/01/02 00:14:12;;;;;;;6.47;3.50;;;13.30;99.90;;;;;;4995127;28;20300;-96
2023/01/02 00:16:41;;;;;;;6.13;3.73;;;13.30;99.90;;;;;;4988387;28;20287;-94
2023/01/02 00:19:12;;;;;;;8.80;3.83;;;13.30;99.90;;;;;;4994841;28;20208;-92
2023/01/02 00:21:39;;;;;;;9.33;3.23;;;13.30;99.90;;;;;;4995896;28;20683;-93
2023/01/02 00:24:06;;;;;;;7.87;3.67;;;13.30;99.90;;;;;;4995828;28;20203;-92
2023/01/02 00:26:33;;;;;;;6.73;3.07;;;13.30;99.90;;;;;;4995841;28;20216;-93
2023/01/02 00:29:01;;;;;;;11.13;3.27;;;13.30;99.90;;;;;;4996282;28;20270;-93
2023/01/02 00:31:29;;;;;;;8.73;3.50;;;13.30;99.90;;;;;;4995449;28;20232;-94
2023/01/02 00:33:56;;;;;;;7.50;3.78;;;13.40;99.90;;;;;;4995175;28;20446;-94
2023/01/02 00:36:25;;;;;;;4.23;3.57;;;13.40;99.90;;;;;;4995224;28;20660;-89
2023/01/02 00:38:54;;;;;;;10.33;3.13;;;13.40;99.90;;;;;;4994546;28;20299;-93
2023/01/02 00:41:23;;;;;;;10.07;3.20;;;13.30;99.90;;;;;;4994743;28;20228;-95
2023/01/02 00:43:50;;;;;;;7.13;3.00;;;13.40;99.90;;;;;;4994820;28;20298;-94
2023/01/02 00:46:17;;;;;;;8.73;3.03;;;13.30;99.90;;;;;;4994673;28;20204;-92
2023/01/02 00:48:45;;;;;;;8.33;3.17;;;13.30;99.90;;;;;;4995040;28;20239;-94
2023/01/02 00:51:12;;;;;;;6.97;3.50;;;13.30;99.90;;;;;;4994644;28;20243;-94
2023/01/02 00:53:41;;;;;;;4.63;3.80;;;13.30;99.90;;;;;;4995603;28;20622;-95
2023/01/02 00:56:08;;;;;;;11.00;3.43;;;13.30;99.90;;;;;;4995733;28;20200;-94
2023/01/02 00:58:35;;;;;;;8.37;3.50;;;13.20;99.90;;;;;;4995277;28;20736;-92
2023/01/02 01:01:02;;;;;;;8.50;3.50;;;13.30;99.90;;;;;;4994878;28;20258;-93
2023/01/02 01:03:30;;;;;;;12.48;4.28;;;13.30;99.90;;;;;;4994237;28;20865;-92
2023/01/02 01:05:57;;;;;;;9.87;3.83;;;13.40;99.90;;;;;;4995624;28;20303;-94
2023/01/02 01:08:24;;;;;;;6.27;3.47;;;13.40;99.90;;;;;;4996093;28;20235;-95
2023/01/02 01:10:52;;;;;;;12.03;3.50;;;13.30;99.90;;;;;;4995504;28;20232;-95
2023/01/02 01:13:22;;;;;;;8.73;3.13;;;13.30;99.90;;;;;;4995419;28;20287;-93
2023/01/02 01:15:49;;;;;;;4.57;2.90;;;13.20;99.90;;;;;;4995075;28;20267;-94
2023/01/02 01:18:16;;;;;;;9.27;3.53;;;13.20;99.90;;;;;;4994829;28;20570;-94
2023/01/02 01:20:42;;;;;;;8.20;3.30;;;13.20;99.90;;;;;;4995074;28;20338;-94
2023/01/02 01:23:09;;;;;;;11.50;3.27;;;13.20;99.90;;;;;;4982647;28;20303;-94
2023/01/02 01:25:37;;;;;;;6.57;3.10;;;13.20;99.90;;;;;;4994866;28;20201;-94
2023/01/02 01:28:06;;;;;;;5.17;2.87;;;13.20;99.90;;;;;;4995385;28;20708;-95
2023/01/02 01:30:33;;;;;;;8.80;3.63;;;13.20;99.90;;;;;;4988258;28;20526;-94
2023/01/02 01:33:00;;;;;;;7.53;3.50;;;13.20;99.90;;;;;;4989475;28;20258;-94
2023/01/02 01:35:28;;;;;;;8.60;3.20;;;13.20;99.90;;;;;;4995534;28;20651;-95
2023/01/02 01:37:55;;;;;;;7.83;3.33;;;13.10;99.90;;;;;;4995266;28;20226;-94
2023/01/02 01:40:22;;;;;;;10.40;3.30;;;13.10;99.90;;;;;;4996088;28;20259;-91
2023/01/02 01:42:49;;;;;;;5.50;3.07;;;13.10;99.90;;;;;;4994542;28;20204;-94
2023/01/02 01:45:18;;;;;;;6.77;2.93;;;13.10;99.90;;;;;;4994622;28;20286;-93
2023/01/02 01:47:51;;;;;;;7.90;3.17;;;13.10;99.90;;;;;;4997194;28;20306;-92
2023/01/02 01:50:24;;;;;;;9.87;3.73;;;13.10;99.90;;;;;;4998412;28;20236;-95
2023/01/02 01:52:55;;;;;;;8.10;3.40;;;13.10;99.90;;;;;;4997426;28;20771;-94
2023/01/02 01:55:25;;;;;;;10.70;3.30;;;13.10;99.90;;;;;;4997662;28;20235;-94
2023/01/02 01:57:56;;;;;;;9.63;3.40;;;13.10;99.90;;;;;;4997350;28;20211;-93
2023/01/02 02:00:25;;;;;;;5.53;3.30;;;13.10;99.90;;;;;;4997756;28;20303;-96
2023/01/02 02:02:57;;;;;;;7.43;3.03;;;13.10;99.90;;;;;;4998001;28;20213;-95
2023/01/02 02:05:29;;;;;;;8.47;3.13;;;13.10;99.90;;;;;;4997875;28;20212;-95
2023/01/02 02:08:02;;;;;;;8.93;3.10;;;13.00;99.90;;;;;;4997505;28;20221;-93
2023/01/02 02:10:29;;;;;;;8.83;3.13;;;13.00;99.90;;;;;;4998103;28;20223;-93
2023/01/02 02:12:57;;;;;;;9.93;3.63;;;13.00;99.90;;;;;;4997434;28;20270;-92
2023/01/02 02:15:31;;;;;;;6.70;3.20;;;12.90;99.90;;;;;;4997530;28;20208;-96
2023/01/02 02:18:11;;;;;;;9.77;3.33;;;12.90;99.90;;;;;;4997246;28;20727;-92
2023/01/02 02:20:48;;;;;;;7.03;2.87;;;12.90;99.90;;;;;;4997159;28;20247;-92
2023/01/02 02:23:48;;;;;;;8.87;3.10;;;12.80;99.90;;;;;;4997279;28;20218;-93
2023/01/02 02:26:35;;;;;;;8.50;3.20;;;12.80;99.90;;;;;;4997306;28;20246;-94
2023/01/02 02:29:42;;;;;;;8.57;3.20;;;12.90;99.90;;;;;;4984507;28;20220;-95
2023/01/02 02:32:17;;;;;;;9.27;3.07;;;12.80;99.90;;;;;;4996641;28;20226;-95
2023/01/02 02:34:52;;;;;;;3.87;2.63;;;12.80;99.90;;;;;;4996923;28;20570;-95
2023/01/02 02:37:25;;;;;;;6.73;3.07;;;12.80;99.90;;;;;;4996500;28;20207;-94
2023/01/02 02:40:01;;;;;;;7.30;2.60;;;12.80;99.90;;;;;;4996524;28;20322;-94
2023/01/02 02:42:44;;;;;;;7.43;2.77;;;12.80;99.90;;;;;;4996319;28;20211;-92
2023/01/02 02:45:19;;;;;;;7.63;3.40;;;12.80;99.90;;;;;;4983894;28;20222;-95
2023/01/02 02:47:52;;;;;;;4.27;2.90;;;12.90;99.90;;;;;;4996147;28;20254;-93
2023/01/02 02:50:31;;;;;;;9.00;3.17;;;12.80;99.90;;;;;;4996468;28;20698;-93
2023/01/02 02:53:03;;;;;;;5.40;3.33;;;12.80;99.90;;;;;;4996609;28;20234;-94
2023/01/02 02:55:38;;;;;;;5.97;3.17;;;12.80;99.90;;;;;;4995972;28;20203;-94
2023/01/02 02:58:06;;;;;;;7.30;3.43;;;12.80;99.90;;;;;;4996128;28;20864;-96
2023/01/02 03:00:34;;;;;;;9.43;3.73;;;12.80;99.90;;;;;;4996209;28;20319;-96
2023/01/02 03:03:02;;;;;;;6.23;3.20;;;12.70;99.90;;;;;;4996075;28;20220;-95
2023/01/02 03:05:34;;;;;;;9.87;3.10;;;12.70;99.90;;;;;;4995935;28;20199;-94
2023/01/02 03:08:06;;;;;;;6.33;3.40;;;12.80;99.90;;;;;;4995814;28;20208;-96
2023/01/02 03:10:48;;;;;;;6.57;3.30;;;12.80;99.90;;;;;;4995292;28;20649;-93
2023/01/02 03:13:22;;;;;;;8.10;3.70;;;12.80;99.90;;;;;;4995978;28;20255;-93
2023/01/02 03:15:59;;;;;;;6.37;3.43;;;12.80;99.90;;;;;;4995698;28;20215;-95
2023/01/02 03:18:34;;;;;;;7.00;3.13;;;12.70;99.90;;;;;;4995451;28;20886;-93
2023/01/02 03:21:06;;;;;;;6.03;2.53;;;12.80;99.90;;;;;;4994876;28;20317;-92
2023/01/02 03:23:41;;;;;;;9.43;3.10;;;12.80;99.90;;;;;;4988519;28;20601;-95
2023/01/02 03:26:12;;;;;;;7.13;3.13;;;12.80;99.90;;;;;;4992866;28;20306;-96
2023/01/02 03:28:43;;;;;;;5.30;2.97;;;12.80;99.90;;;;;;4994613;28;20295;-96
2023/01/02 03:31:14;;;;;;;8.90;3.10;;;12.80;99.90;;;;;;4993170;28;20262;-92
2023/01/02 03:33:48;;;;;;;6.17;2.87;;;12.90;99.90;;;;;;4991336;28;20261;-93
2023/01/02 03:36:20;;;;;;;7.47;2.87;;;12.80;99.90;;;;;;4992723;28;20287;-93
2023/01/02 03:38:52;;;;;;;7.20;3.17;;;12.80;99.90;;;;;;4990685;28;20294;-93
2023/01/02 03:41:23;;;;;;;9.43;3.20;;;12.80;99.90;;;;;;5001878;28;20230;-95
2023/01/02 03:43:53;;;;;;;6.73;2.97;;;12.80;99.90;;;;;;5010358;28;20205;-94
2023/01/02 03:46:26;;;;;;;5.87;3.37;;;12.80;99.90;;;;;;5010775;28;20207;-92
2023/01/02 03:49:00;;;;;;;6.40;3.17;;;12.70;99.90;;;;;;5004222;28;20235;-94
2023/01/02 03:51:27;;;;;;;11.40;3.30;;;12.80;99.90;;;;;;4995769;28;20246;-94
2023/01/02 03:53:54;;;;;;;10.87;3.37;;;12.80;99.90;;;;;;4995281;28;20243;-94
2023/01/02 03:56:29;;;;;;;9.80;3.42;;;12.80;99.90;;;;;;4994971;28;20567;-93
2023/01/02 03:59:03;;;;;;;6.17;2.87;;;12.80;99.90;;;;;;4995409;28;20203;-94
2023/01/02 04:01:37;;;;;;;7.83;3.03;;;13.00;99.90;;;;;;4995137;28;20230;-95
2023/01/02 04:04:12;;;;;;;6.00;2.70;;;12.90;99.90;;;;;;4995211;28;20272;-95
2023/01/02 04:06:43;;;;;;;10.00;3.00;;;12.80;99.90;;;;;;4995259;28;20215;-95
2023/01/02 04:09:13;;;;;;;5.13;2.60;;;12.90;99.90;;;;;;4994194;28;20291;-93
2023/01/02 04:11:46;;;;;;;8.03;2.93;;;12.80;99.90;;;;;;4994317;28;20231;-95
2023/01/02 04:14:18;;;;;;;5.80;2.73;;;12.80;99.90;;;;;;4994128;28;20220;-91
2023/01/02 04:16:48;;;;;;;7.77;2.60;;;12.90;99.90;;;;;;4995435;28;20632;-94
2023/01/02 04:19:23;;;;;;;4.77;2.67;;;12.80;99.90;;;;;;4994304;28;20286;-93
2023/01/02 04:21:56;;;;;;;6.93;2.60;;;12.80;99.90;;;;;;4995317;28;20674;-94
2023/01/02 04:24:29;;;;;;;6.47;2.90;;;12.80;99.90;;;;;;4995221;28;20235;-95
2023/01/02 04:26:59;;;;;;;8.87;2.30;;;12.80;99.90;;;;;;4995082;28;20196;-91
2023/01/02 04:29:26;;;;;;;7.93;2.90;;;12.80;99.90;;;;;;4995204;28;20221;-92
2023/01/02 04:32:01;;;;;;;7.53;2.57;;;12.70;99.90;;;;;;4994656;28;20547;-93
2023/01/02 04:34:33;;;;;;;5.37;2.43;;;12.70;99.90;;;;;;4994779;28;20273;-94
2023/01/02 04:37:00;;;;;;;5.53;2.20;;;12.70;99.90;;;;;;4994773;28;20227;-93
2023/01/02 04:39:27;;;;;;;5.70;2.90;;;12.60;99.90;;;;;;4994855;28;20560;-92
2023/01/02 04:41:55;;;;;;;5.07;2.30;;;12.60;99.90;;;;;;4995421;28;20262;-93
2023/01/02 04:44:25;;;;;;;6.63;2.50;;;12.50;99.90;;;;;;4995080;28;20207;-95
2023/01/02 04:46:52;;;;;;;3.50;2.20;;;12.60;99.90;;;;;;4995000;28;20222;-93
2023/01/02 04:49:21;;;;;;;7.73;2.30;;;12.40;99.90;;;;;;4995730;28;20228;-93
2023/01/02 04:51:57;;;;;;;6.07;2.20;;;12.40;99.90;;;;;;4994974;28;20231;-94
2023/01/02 04:54:24;;;;;;;4.37;2.30;;;12.30;99.90;;;;;;4994852;28;20231;-92
2023/01/02 04:56:50;;;;;;;3.73;2.13;;;12.40;99.90;;;;;;4995397;28;20303;-96
2023/01/02 04:59:17;;;;;;;4.10;2.20;;;12.30;99.90;;;;;;4995488;28;20307;-93
2023/01/02 05:01:45;;;;;;;4.37;1.87;;;12.30;99.90;;;;;;4995602;28;20349;-96
2023/01/02 05:04:12;;;;;;;3.93;2.17;;;12.30;99.90;;;;;;4994605;28;20211;-90
2023/01/02 05:06:39;;;;;;;4.57;4.17;;;12.30;99.90;;;;;;4994522;28;20294;-93
2023/01/02 05:09:07;;;;;;;4.00;3.60;;;12.00;99.90;;;;;;4994641;28;20662;-94
2023/01/02 05:11:48;;;;;;;2.60;2.40;;;11.80;99.90;;;;;;4994548;28;20746;-91
2023/01/02 05:14:15;;;;;;;2.10;1.90;;;11.60;99.90;;;;;;4994247;28;20727;-92
2023/01/02 05:16:42;;;;;;;1.57;1.47;;;11.30;99.90;;;;;;4994415;28;20300;-93
2023/01/02 05:19:09;;;;;;;1.83;1.33;;;11.10;99.90;;;;;;4994694;28;20213;-93
2023/01/02 05:24:21;;;;;;;1.23;1.13;;;10.90;99.90;;;;;;4998024;28;20704;-92
2023/01/02 05:26:48;;;;;;;1.30;1.20;;;10.90;99.90;;;;;;4998133;28;20217;-95
2023/01/02 05:29:16;;;;;;;1.30;1.20;;;10.90;99.90;;;;;;4998302;28;20205;-96
2023/01/02 05:31:42;;;;;;;1.00;1.00;;;10.80;99.90;;;;;;4997603;28;20772;-92
2023/01/02 05:34:13;;;;;;;1.50;1.40;;;10.80;99.90;;;;;;4997619;28;20716;-93
2023/01/02 05:36:42;;;;;;;1.63;1.53;;;10.90;99.90;;;;;;4998049;28;20209;-93
2023/01/02 05:39:12;;;;;;;1.60;1.50;;;10.70;99.90;;;;;;4997885;28;20677;-92
2023/01/02 05:41:43;;;;;;;1.90;1.67;;;10.70;99.90;;;;;;4997746;28;20283;-92
2023/01/02 05:44:11;;;;;;;2.60;2.40;;;10.60;99.90;;;;;;4997834;28;20299;-93
2023/01/02 05:46:39;;;;;;;2.33;2.13;;;10.60;99.90;;;;;;4997424;28;20214;-92
2023/01/02 05:49:10;;;;;;;2.50;2.40;;;10.60;99.90;;;;;;4997750;28;20633;-92
2023/01/02 05:51:37;;;;;;;2.93;2.73;;;10.60;99.90;;;;;;4997516;28;20224;-90
2023/01/02 05:54:04;;;;;;;3.13;2.93;;;10.50;99.90;;;;;;4997642;28;20242;-94
2023/01/02 05:56:31;;;;;;;4.27;3.73;;;10.60;99.90;;;;;;4997551;28;20224;-91
2023/01/02 05:59:00;;;;;;;4.07;3.73;;;10.60;99.90;;;;;;5000777;28;20256;-91
2023/01/02 06:01:29;;;;;;;4.30;4.00;;;10.50;99.90;;;;;;4994413;28;20559;-94
2023/01/02 06:03:59;;;;;;;5.63;5.10;;;10.60;99.90;;;;;;4991709;28;20307;-90
2023/01/02 06:06:30;;;;;;;6.27;5.70;;;10.60;99.90;;;;;;4997196;28;20291;-92
2023/01/02 06:08:58;;;;;;;6.93;5.97;;;10.50;99.90;;;;;;4997003;28;20216;-92
2023/01/02 06:11:25;;;;;;;10.50;8.07;;;10.60;99.90;;;;;;4984361;28;20315;-91
2023/01/02 06:13:53;;;;;;;10.60;8.47;;;10.60;99.90;;;;;;4996628;28;20243;-95
2023/01/02 06:16:22;;;;;;;8.53;7.63;;;10.70;99.90;;;;;;4996999;28;20232;-92
2023/01/02 06:18:49;;;;;;;10.27;8.83;;;10.60;99.90;;;;;;4996560;28;20235;-93
2023/01/02 06:21:20;;;;;;;10.27;9.20;;;10.60;99.90;;;;;;4996877;28;20288;-94
2023/01/02 06:23:47;;;;;;;12.27;10.37;;;10.50;99.90;;;;;;4996669;28;20220;-93
2023/01/02 06:26:16;;;;;;;11.30;9.70;;;10.40;99.90;;;;;;4996886;28;20662;-94
2023/01/02 06:28:45;;;;;;;13.07;10.80;;;10.40;99.90;;;;;;4984542;28;20209;-92
2023/01/02 06:31:17;;;;;;;14.70;12.57;;;10.40;99.90;;;;;;4996069;28;20224;-94
2023/01/02 06:33:46;;;;;;;13.77;12.27;;;10.40;99.90;;;;;;4995718;28;20228;-93
2023/01/02 06:36:15;;;;;;;15.07;12.90;;;10.40;99.90;;;;;;4996608;28;20645;-93
2023/01/02 06:38:42;;;;;;;18.20;13.23;;;10.40;99.90;;;;;;4995294;28;20641;-94
2023/01/02 06:41:10;;;;;;;16.73;12.83;;;10.40;99.90;;;;;;4991588;28;20292;-94
2023/01/02 06:43:42;;;;;;;18.53;13.10;;;10.40;99.90;;;;;;4996860;28;20296;-93
2023/01/02 06:46:11;;;;;;;15.20;12.13;;;10.30;99.90;;;;;;5003328;28;20308;-93
2023/01/02 06:48:39;;;;;;;16.13;12.90;;;10.40;99.90;;;;;;5004257;28;20243;-93
2023/01/02 06:51:09;;;;;;;17.03;12.67;;;10.30;99.90;;;;;;5002768;28;20259;-94
2023/01/02 06:53:37;;;;;;;20.48;16.33;;;10.30;99.90;;;;;;5004042;28;20447;-93
2023/01/02 06:56:05;;;;;;;18.43;13.57;;;10.40;99.90;;;;;;5008356;28;20671;-93
2023/01/02 06:58:34;;;;;;;17.67;11.93;;;10.40;99.90;;;;;;5008825;28;20205;-93
2023/01/02 07:01:03;;;;;;;19.63;12.93;;;10.30;99.90;;;;;;5001737;28;20251;-91
2023/01/02 07:03:31;;;;;;;16.80;11.90;;;10.30;99.90;;;;;;4995856;28;20231;-92
2023/01/02 07:06:03;;;;;;;17.17;11.83;;;10.30;99.90;;;;;;4996200;28;20207;-91
2023/01/02 07:08:33;;;;;;;19.93;12.90;;;10.20;99.90;;;;;;4996244;28;20231;-91
2023/01/02 07:11:12;;;;;;;19.47;13.30;;;10.10;99.90;;;;;;4996221;28;20274;-91
2023/01/02 07:13:42;;;;;;;17.83;12.50;;;10.10;99.90;;;;;;4995814;28;20258;-90
2023/01/02 07:16:11;;;;;;;15.83;11.87;;;10.10;99.90;;;;;;4995696;28;20714;-91
2023/01/02 07:18:38;;;;;;;15.77;10.70;;;10.20;99.90;;;;;;4995843;28;20732;-92
2023/01/02 07:21:08;;;;;;;16.27;11.43;;;10.10;99.90;;;;;;4995576;28;20446;-90
2023/01/02 07:23:37;;;;;;;13.17;9.37;;;10.10;99.90;;;;;;4995979;28;20262;-91
2023/01/02 07:26:07;;;;;;;10.07;8.43;;;10.20;99.90;;;;;;4996032;28;20299;-91
2023/01/02 07:28:35;;;;;;;10.70;7.70;;;10.20;99.90;;;;;;4995380;28;20572;-90
2023/01/02 07:31:06;;;;;;;8.33;6.30;;;10.10;99.90;;;;;;4995702;28;20263;-90
2023/01/02 07:33:33;;;;;;;6.67;5.90;;;10.00;99.90;;;;;;4995227;28;20323;-91
2023/01/02 07:36:02;;;;;;;9.07;5.80;;;10.00;99.90;;;;;;4996426;28;20235;-91
2023/01/02 07:38:29;;;;;;;8.20;6.33;;;9.90;99.90;;;;;;4995596;28;20344;-91
2023/01/02 07:41:00;;;;;;;7.83;5.90;;;9.90;99.90;;;;;;4995863;28;20220;-92
2023/01/02 07:43:27;;;;;;;6.67;5.70;;;9.90;99.90;;;;;;4994503;28;20208;-91
2023/01/02 07:45:54;;;;;;;6.67;5.53;;;9.90;99.90;;;;;;4995234;28;20232;-92
2023/01/02 07:48:21;;;;;;;8.07;5.63;;;9.90;99.90;;;;;;4995669;28;20219;-93
2023/01/02 07:50:49;;;;;;;8.73;7.23;;;10.00;99.90;;;;;;4995101;28;20493;-91
2023/01/02 07:53:16;;;;;;;6.97;6.23;;;10.00;99.90;;;;;;4994816;28;20245;-93
2023/01/02 07:55:43;;;;;;;7.90;5.90;;;10.20;99.90;;;;;;4995275;28;20205;-93
2023/01/02 07:58:11;;;;;;;10.53;6.37;;;10.10;99.90;;;;;;4995369;28;20296;-91
2023/01/02 08:00:39;;;;;;;7.83;6.40;;;10.00;99.90;;;;;;4995124;28;20325;-91
2023/01/02 08:03:09;;;;;;;7.10;6.03;;;10.00;99.90;;;;;;4995473;28;20674;-94
2023/01/02 08:05:36;;;;;;;7.10;6.40;;;10.00;99.90;;;;;;4995224;28;20291;-94
2023/01/02 08:08:03;;;;;;;7.43;6.60;;;10.00;99.90;;;;;;4995313;28;20201;-93
2023/01/02 08:10:30;;;;;;;7.27;6.50;;;10.00;99.90;;;;;;4994929;28;20700;-92
2023/01/02 08:12:58;;;;;;;7.20;6.57;;;10.00;99.90;;;;;;4995062;28;20225;-94
2023/01/02 08:15:26;;;;;;;8.47;6.90;;;10.10;99.90;;;;;;4994748;28;20664;-91
2023/01/02 08:17:53;;;;;;;8.83;6.73;;;10.10;99.90;;;;;;4994889;28;20332;-92
2023/01/02 08:20:20;;;;;;;7.73;6.77;;;10.10;99.90;;;;;;4995770;28;20235;-93
2023/01/02 08:22:47;;;;;;;8.47;6.57;;;10.10;99.90;;;;;;4996406;28;20215;-96
2023/01/02 08:25:14;;;;;;;8.57;7.27;;;10.20;99.90;;;;;;4995563;28;20230;-93
2023/01/02 08:27:41;;;;;;;10.67;7.43;;;10.20;99.90;;;;;;4995207;28;20270;-92
2023/01/02 08:30:09;;;;;;;7.53;6.33;;;10.30;99.90;;;;;;4995434;28;20220;-94
2023/01/02 08:32:38;;;;;;;8.07;7.03;;;10.20;99.90;;;;;;4995750;28;20264;-96
2023/01/02 08:35:07;;;;;;;8.40;7.00;;;10.20;99.90;;;;;;4995985;28;20283;-93
2023/01/02 08:37:34;;;;;;;9.90;7.30;;;10.30;99.90;;;;;;4996573;28;20283;-93
2023/01/02 08:40:02;;;;;;;8.27;7.33;;;10.30;99.90;;;;;;4996298;28;20221;-92
2023/01/02 08:42:29;;;;;;;12.50;7.90;;;10.30;99.90;;;;;;4996320;28;20217;-93
2023/01/02 08:44:57;;;;;;;8.63;7.73;;;10.40;99.90;;;;;;4996122;28;20228;-95
2023/01/02 08:47:24;;;;;;;11.80;9.77;;;10.40;99.90;;;;;;4996703;28;20518;-93
2023/01/02 08:49:53;;;;;;;8.67;7.77;;;10.20;99.90;;;;;;4997097;28;20659;-93
2023/01/02 08:52:21;;;;;;;8.83;7.70;;;10.30;99.90;;;;;;4996509;28;20240;-94
2023/01/02 08:54:49;;;;;;;8.83;7.97;;;10.20;99.90;;;;;;4997416;28;20220;-93
2023/01/02 08:57:16;;;;;;;8.73;7.90;;;10.30;99.90;;;;;;5002296;28;20235;-91
2023/01/02 08:59:44;;;;;;;8.67;7.87;;;10.30;99.90;;;;;;5002252;28;20669;-94
2023/01/02 09:02:13;;;;;;;9.90;8.47;;;10.30;99.90;;;;;;5002728;28;20208;-90
2023/01/02 09:04:41;;;;;;;7.80;7.00;;;10.40;99.90;;;;;;5002709;28;20204;-92
2023/01/02 09:07:10;;;;;;;7.47;6.77;;;10.40;99.90;;;;;;5002635;28;20202;-92
2023/01/02 09:09:42;;;;;;;8.13;6.03;;;10.40;99.90;;;;;;5001614;28;20200;-92
2023/01/02 09:12:09;;;;;;;7.50;6.43;;;10.30;99.90;;;;;;5014033;28;20206;-93
2023/01/02 09:14:36;;;;;;;6.53;5.93;;;10.30;99.90;;;;;;5020658;28;20247;-93
2023/01/02 09:17:03;;;;;;;6.03;5.33;;;10.30;99.90;;;;;;5020540;28;20197;-93
2023/01/02 09:19:30;;;;;;;7.00;5.57;;;10.30;99.90;;;;;;5021031;28;20189;-95
2023/01/02 09:21:57;;;;;;;8.60;5.43;;;10.40;99.90;;;;;;5021210;28;20201;-94
2023/01/02 09:24:25;;;;;;;5.87;5.37;;;10.30;99.90;;;;;;5021005;28;20197;-95
2023/01/02 09:26:53;;;;;;;7.07;5.27;;;10.40;99.90;;;;;;5020673;28;20227;-95
2023/01/02 09:29:22;;;;;;;5.30;4.80;;;10.40;99.90;;;;;;5015193;28;20207;-95
2023/01/02 09:31:49;;;;;;;4.63;4.23;;;10.40;99.90;;;;;;5007026;28;20308;-93
2023/01/02 09:37:01;;;;;;;4.27;3.90;;;10.60;99.90;;;;;;5003831;28;20214;-92
2023/01/02 09:39:33;;;;;;;3.67;3.30;;;10.60;99.90;;;;;;5004465;28;20265;-94
2023/01/02 09:42:03;;;;;;;5.07;3.10;;;10.60;99.90;;;;;;5000978;28;20281;-93
2023/01/02 09:44:43;;;;;;;4.07;3.60;;;10.50;99.90;;;;;;5000600;28;20633;-94
2023/01/02 09:47:16;;;;;;;4.33;3.47;;;10.70;99.90;;;;;;4991433;28;20225;-96
2023/01/02 09:49:47;;;;;;;4.30;3.27;;;10.50;99.90;;;;;;5008560;28;20248;-94
2023/01/02 09:52:20;;;;;;;4.83;3.17;;;10.60;99.90;;;;;;5013385;28;20206;-95
2023/01/02 09:54:51;;;;;;;6.33;4.03;;;10.60;99.90;;;;;;5011395;28;20230;-93
2023/01/02 09:57:38;;;;;;;4.97;3.73;;;10.60;99.90;;;;;;5009027;28;20195;-93
2023/01/02 10:00:20;;;;;;;3.63;3.30;;;10.80;99.90;;;;;;5002972;28;20247;-94
2023/01/02 10:03:04;;;;;;;3.93;3.53;;;10.90;99.90;;;;;;5002813;28;20672;-92
2023/01/02 10:05:51;;;;;;;7.00;3.37;;;10.90;99.90;;;;;;5001017;28;20650;-93
2023/01/02 10:08:33;;;;;;;4.20;3.33;;;10.90;99.90;;;;;;4999508;28;20209;-92
2023/01/02 10:11:24;;;;;;;4.97;3.47;;;10.80;99.90;;;;;;5000771;28;20857;-95
2023/01/02 10:14:00;;;;;;;3.70;3.40;;;10.90;99.90;;;;;;4995747;28;20288;-95
2023/01/02 10:16:31;;;;;;;5.33;3.60;;;11.00;99.90;;;;;;4995341;28;20233;-93
2023/01/02 10:19:03;;;;;;;5.70;3.47;;;11.00;99.90;;;;;;4996920;28;20384;-94
2023/01/02 10:21:34;;;;;;;3.50;3.20;;;11.00;99.90;;;;;;5005140;28;20270;-95
2023/01/02 10:24:37;;;;;;;5.67;3.60;;;11.00;99.90;;;;;;5003230;28;20202;-96
2023/01/02 10:27:09;;;;;;;4.73;3.13;;;10.90;99.90;;;;;;5005306;28;20229;-95
2023/01/02 10:29:53;;;;;;;3.90;3.53;;;11.00;99.90;;;;;;5008025;28;20210;-94
2023/01/02 10:32:28;;;;;;;4.40;3.40;;;11.10;99.90;;;;;;5008071;28;20215;-93
2023/01/02 10:35:44;;;;;;;4.43;3.63;;;11.00;99.90;;;;;;5006596;28;20237;-94
2023/01/02 10:38:32;;;;;;;3.50;3.20;;;11.20;99.90;;;;;;5007189;28;20210;-96
2023/01/02 10:41:03;;;;;;;3.53;3.03;;;11.20;99.90;;;;;;4996282;28;20276;-94
2023/01/02 10:43:52;;;;;;;3.53;3.10;;;11.30;99.90;;;;;;5009297;28;20838;-94
2023/01/02 10:46:24;;;;;;;4.07;2.97;;;11.30;99.90;;;;;;5006100;28;20195;-93
2023/01/02 10:48:53;;;;;;;5.50;2.87;;;11.30;99.90;;;;;;4991184;28;20281;-94
2023/01/02 10:54:15;;;;;;;2.67;2.40;;;11.20;99.90;;;;;;4993206;28;20657;-95
2023/01/02 10:59:53;;;;;;;2.43;2.23;;;11.20;99.90;;;;;;5001412;28;20222;-93
2023/01/02 11:02:48;;;;;;;2.43;1.97;;;11.00;99.90;;;;;;5000856;28;20207;-94
2023/01/02 11:05:26;;;;;;;3.53;2.07;;;11.00;99.90;;;;;;4998862;28;20234;-95
2023/01/02 11:07:54;;;;;;;2.03;1.70;;;10.90;99.90;;;;;;4998855;28;20277;-93
2023/01/02 11:10:27;;;;;;;3.20;1.93;;;10.90;99.90;;;;;;4998651;28;20276;-94
2023/01/02 11:13:02;;;;;;;2.10;1.90;;;11.00;99.90;;;;;;5001316;28;20207;-95
2023/01/02 11:16:03;;;;;;;4.07;2.10;;;11.10;99.90;;;;;;5002390;28;20325;-96
2023/01/02 11:18:37;;;;;;;4.05;2.03;;;11.20;99.90;;;;;;4997276;28;20453;-93
2023/01/02 11:21:10;;;;;;;1.70;1.60;;;11.20;99.90;;;;;;4998952;28;20227;-93
2023/01/02 11:23:44;;;;;;;1.37;1.27;;;11.00;99.90;;;;;;4990891;28;20646;-94
2023/01/02 11:26:22;;;;;;;4.00;1.70;;;11.00;99.90;;;;;;4996184;28;20709;-96
2023/01/02 11:28:54;;;;;;;3.27;1.60;;;11.00;99.90;;;;;;4998221;28;20305;-93
2023/01/02 11:31:23;;;;;;;6.27;1.80;;;11.00;99.90;;;;;;4996515;28;20216;-96
2023/01/02 11:34:07;;;;;;;4.50;2.70;;;11.30;99.90;;;;;;4997746;28;20226;-95
2023/01/02 11:36:42;;;;;;;2.87;1.70;;;11.50;99.90;;;;;;4986736;28;20213;-94
2023/01/02 11:39:24;;;;;;;2.60;1.77;;;11.40;99.90;;;;;;4998209;28;20335;-95
2023/01/02 11:44:54;;;;;;;3.63;1.70;;;11.20;99.90;;;;;;4998322;28;20217;-95
2023/01/02 11:47:31;;;;;;;4.23;1.90;;;11.30;99.90;;;;;;4999299;28;20301;-95
2023/01/02 11:50:01;;;;;;;2.77;1.93;;;11.30;99.90;;;;;;5002334;28;20300;-95
2023/01/02 11:52:37;;;;;;;4.13;2.07;;;11.40;99.90;;;;;;5004382;28;20199;-95
2023/01/02 11:55:19;;;;;;;2.40;2.20;;;11.40;99.90;;;;;;5002128;28;20317;-94
2023/01/02 11:57:58;;;;;;;3.17;2.60;;;11.40;99.90;;;;;;5003057;28;20226;-94
2023/01/02 12:00:32;;;;;;;2.90;2.70;;;11.40;99.90;;;;;;4987230;28;20266;-93
2023/01/02 12:03:06;;;;;;;5.93;3.43;;;11.30;99.90;;;;;;4998183;28;20617;-95
2023/01/02 12:05:48;;;;;;;4.80;3.50;;;11.40;99.90;;;;;;4997169;28;20737;-95
2023/01/02 12:08:26;;;;;;;6.13;3.90;;;11.30;99.90;;;;;;4996750;28;20214;-95
2023/01/02 12:11:05;;;;;;;4.40;3.20;;;11.30;99.90;;;;;;4995747;28;20222;-95
2023/01/02 12:14:11;;;;;;;;;;;;;;;;;;;;;
2023/01/02 12:16:45;;;;;;;6.57;4.03;;;11.30;99.90;;;;;;4976476;28;20206;-94
2023/01/02 12:19:56;;;;;;;6.83;4.67;;;11.30;99.90;;;;;;4989576;28;20309;-95
2023/01/02 12:22:44;;;;;;;5.27;4.30;;;11.20;99.90;;;;;;4990518;28;20221;-96
2023/01/02 12:25:35;;;;;;;5.30;4.17;;;11.20;99.90;;;;;;4996915;28;20277;-93
2023/01/02 12:28:13;;;;;;;4.10;3.70;;;11.20;99.90;;;;;;4985981;28;20232;-94
2023/01/02 12:30:49;;;;;;;4.67;4.13;;;11.10;99.90;;;;;;4996064;28;20311;-93
2023/01/02 12:33:47;;;;;;;4.13;3.60;;;11.00;99.90;;;;;;4997166;28;20229;-95
2023/01/02 12:36:48;;;;;;;2.47;2.20;;;10.90;99.90;;;;;;4960358;28;20239;-93
2023/01/02 12:39:37;;;;;;;3.90;1.40;;;10.40;99.90;;;;;;4984803;28;20223;-93
2023/01/02 12:45:18;;;;;;;2.30;1.20;;;10.10;99.90;;;;;;4998375;28;20657;-93
2023/01/02 12:48:26;;;;;;;1.37;1.20;;;10.00;99.90;;;;;;5000877;28;20219;-96
2023/01/02 12:51:10;;;;;;;1.73;1.10;;;9.90;99.90;;;;;;4987911;28;20252;-92
2023/01/02 12:54:19;;;;;;;3.23;0.90;;;9.90;99.90;;;;;;4997925;28;20216;-94
2023/01/02 12:57:03;;;;;;;1.83;1.00;;;9.80;99.90;;;;;;4965375;28;20267;-94
2023/01/02 13:00:04;;;;;;;1.60;1.10;;;9.80;99.90;;;;;;4996767;28;20238;-93
2023/01/02 13:02:58;;;;;;;2.93;1.00;;;9.80;99.90;;;;;;4945274;28;20749;-95
2023/01/02 13:05:34;;;;;;;2.28;1.35;;;9.80;99.90;;;;;;4982729;28;20496;-93
2023/01/02 13:08:08;;;;;;;1.10;1.10;;;9.80;99.90;;;;;;4994835;28;20234;-91
2023/01/02 13:10:36;;;;;;;1.77;0.90;;;9.80;99.90;;;;;;4994621;28;20244;-94
2023/01/02 13:13:05;;;;;;;1.10;1.00;;;9.80;99.90;;;;;;4993590;28;20239;-92
2023/01/02 13:15:36;;;;;;;2.03;0.60;;;9.80;99.90;;;;;;4994498;28;20263;-94
2023/01/02 13:18:10;;;;;;;1.93;0.63;;;9.80;99.90;;;;;;4994858;28;20232;-93
2023/01/02 13:20:45;;;;;;;1.40;0.70;;;9.90;99.90;;;;;;4993654;28;20224;-92
2023/01/02 13:23:31;;;;;;;2.43;0.80;;;9.80;99.90;;;;;;4994353;28;20205;-94
2023/01/02 13:26:05;;;;;;;0.40;0.40;;;9.90;99.90;;;;;;4993835;28;20212;-93
2023/01/02 13:28:40;;;;;;;0.97;0.50;;;9.80;99.90;;;;;;4994580;28;20299;-95
2023/01/02 13:31:10;;;;;;;2.10;0.60;;;9.80;99.90;;;;;;4993830;28;20315;-92